sensor_id;sensor_type;location;lat;lon;timestamp;P1;durP1;ratioP1;P2;durP2;ratioP2
13057;SDS011;6595;49.578;11.012;2023-08-01T00:00:24;10.1;;;4.9;;
13057;SDS011;6595;49.578;11.012;2023-08-01T00:02:23;8.9;;;4.8;;
13057;SDS011;6595;49.578;11.012;2023-08-01T00:04:23;9.2;;;4.7;;
13057;SDS011;6595;49.578;11.012;2023-08-01T00:06:23;7.9;;;4.8;;
13057;SDS011;6595;49.578;11.012;2023-08-01T00:08:24;9.1;;;5.3;;
13057;SDS011;6595;49.578;11.012;2023-08-01T00:10:23;9.1;;;5.3;;
13057;SDS011;6595;49.578;11.012;2023-08-01T00:12:24;8.9;;;4.9;;
13057;SDS011;6595;49.578;11.012;2023-08-01T00:14:23;8.7;;;5.1;;
13057;SDS011;6595;49.578;11.012;2023-08-01T00:16:23;10.3;;;5.1;;
13057;SDS011;6595;49.578;11.012;2023-08-01T00:18:24;9.5;;;4.9;;
13057;SDS011;6595;49.578;11.012;2023-08-01T00:20:23;11.9;;;5.2;;
13057;SDS011;6595;49.578;11.012;2023-08-01T00:22:24;11.9;;;5.2;;
13057;SDS011;6595;49.578;11.012;2023-08-01T00:24:23;8.3;;;5.0;;
13057;SDS011;6595;49.578;11.012;2023-08-01T00:26:23;10.0;;;4.9;;
13057;SDS011;6595;49.578;11.012;2023-08-01T00:28:23;10.6;;;5.3;;
13057;SDS011;6595;49.578;11.012;2023-08-01T00:30:24;10.6;;;5.3;;
13057;SDS011;6595;49.578;11.012;2023-08-01T00:32:23;9.9;;;5.3;;
13057;SDS011;6595;49.578;11.012;2023-08-01T00:34:24;10.4;;;5.6;;
13057;SDS011;6595;49.578;11.012;2023-08-01T00:36:23;9.6;;;5.1;;
13057;SDS011;6595;49.578;11.012;2023-08-01T00:38:23;8.8;;;5.1;;
13057;SDS011;6595;49.578;11.012;2023-08-01T00:40:24;8.8;;;5.1;;
13057;SDS011;6595;49.578;11.012;2023-08-01T00:42:23;9.6;;;5.4;;
13057;SDS011;6595;49.578;11.012;2023-08-01T00:44:23;11.3;;;5.6;;
13057;SDS011;6595;49.578;11.012;2023-08-01T00:46:24;10.1;;;6.0;;
13057;SDS011;6595;49.578;11.012;2023-08-01T00:48:23;9.8;;;5.3;;
13057;SDS011;6595;49.578;11.012;2023-08-01T00:50:24;9.8;;;5.3;;
13057;SDS011;6595;49.578;11.012;2023-08-01T00:52:23;8.3;;;5.2;;
13057;SDS011;6595;49.578;11.012;2023-08-01T00:54:23;10.3;;;5.7;;
13057;SDS011;6595;49.578;11.012;2023-08-01T00:56:24;9.7;;;5.5;;
13057;SDS011;6595;49.578;11.012;2023-08-01T00:58:23;11.1;;;5.6;;
13057;SDS011;6595;49.578;11.012;2023-08-01T01:00:23;11.1;;;5.6;;
13057;SDS011;6595;49.578;11.012;2023-08-01T01:02:23;9.8;;;5.5;;
13057;SDS011;6595;49.578;11.012;2023-08-01T01:04:24;9.9;;;5.4;;
13057;SDS011;6595;49.578;11.012;2023-08-01T01:06:24;9.6;;;5.6;;
13057;SDS011;6595;49.578;11.012;2023-08-01T01:08:23;9.6;;;5.6;;
13057;SDS011;6595;49.578;11.012;2023-08-01T01:10:23;9.2;;;5.6;;
13057;SDS011;6595;49.578;11.012;2023-08-01T01:12:23;9.8;;;5.6;;
13057;SDS011;6595;49.578;11.012;2023-08-01T01:14:23;10.4;;;5.6;;
13057;SDS011;6595;49.578;11.012;2023-08-01T01:16:23;9.0;;;5.5;;
13057;SDS011;6595;49.578;11.012;2023-08-01T01:18:24;9.0;;;5.5;;
13057;SDS011;6595;49.578;11.012;2023-08-01T01:20:23;10.8;;;5.5;;
13057;SDS011;6595;49.578;11.012;2023-08-01T01:22:23;8.1;;;5.5;;
13057;SDS011;6595;49.578;11.012;2023-08-01T01:24:23;8.1;;;5.5;;
13057;SDS011;6595;49.578;11.012;2023-08-01T01:26:23;11.2;;;5.5;;
13057;SDS011;6595;49.578;11.012;2023-08-01T01:28:23;11.2;;;5.5;;
13057;SDS011;6595;49.578;11.012;2023-08-01T01:30:23;9.9;;;5.9;;
13057;SDS011;6595;49.578;11.012;2023-08-01T01:32:23;12.1;;;5.6;;
13057;SDS011;6595;49.578;11.012;2023-08-01T01:34:23;10.4;;;5.2;;
13057;SDS011;6595;49.578;11.012;2023-08-01T01:36:24;9.6;;;5.3;;
13057;SDS011;6595;49.578;11.012;2023-08-01T01:38:23;9.6;;;5.3;;
13057;SDS011;6595;49.578;11.012;2023-08-01T01:40:23;10.4;;;5.3;;
13057;SDS011;6595;49.578;11.012;2023-08-01T01:42:23;9.7;;;5.2;;
13057;SDS011;6595;49.578;11.012;2023-08-01T01:44:23;9.2;;;5.1;;
13057;SDS011;6595;49.578;11.012;2023-08-01T01:46:24;9.2;;;5.1;;
13057;SDS011;6595;49.578;11.012;2023-08-01T01:48:23;9.0;;;5.0;;
13057;SDS011;6595;49.578;11.012;2023-08-01T01:50:24;10.4;;;5.4;;
13057;SDS011;6595;49.578;11.012;2023-08-01T01:52:23;9.0;;;5.0;;
13057;SDS011;6595;49.578;11.012;2023-08-01T01:54:24;8.8;;;4.9;;
13057;SDS011;6595;49.578;11.012;2023-08-01T01:56:23;8.8;;;4.9;;
13057;SDS011;6595;49.578;11.012;2023-08-01T01:58:23;9.3;;;5.0;;
13057;SDS011;6595;49.578;11.012;2023-08-01T02:00:24;8.7;;;5.0;;
13057;SDS011;6595;49.578;11.012;2023-08-01T02:02:23;9.4;;;5.0;;
13057;SDS011;6595;49.578;11.012;2023-08-01T02:04:23;9.4;;;4.9;;
13057;SDS011;6595;49.578;11.012;2023-08-01T02:06:24;9.4;;;4.9;;
13057;SDS011;6595;49.578;11.012;2023-08-01T02:08:23;9.6;;;5.2;;
13057;SDS011;6595;49.578;11.012;2023-08-01T02:10:23;7.7;;;4.5;;
13057;SDS011;6595;49.578;11.012;2023-08-01T02:12:24;7.7;;;4.5;;
13057;SDS011;6595;49.578;11.012;2023-08-01T02:14:23;9.9;;;5.1;;
13057;SDS011;6595;49.578;11.012;2023-08-01T02:16:23;8.5;;;4.7;;
13057;SDS011;6595;49.578;11.012;2023-08-01T02:18:23;8.9;;;4.5;;
13057;SDS011;6595;49.578;11.012;2023-08-01T02:20:23;8.6;;;4.6;;
13057;SDS011;6595;49.578;11.012;2023-08-01T02:22:24;8.7;;;4.6;;
13057;SDS011;6595;49.578;11.012;2023-08-01T02:24:23;9.0;;;4.8;;
13057;SDS011;6595;49.578;11.012;2023-08-01T02:26:23;9.0;;;4.8;;
13057;SDS011;6595;49.578;11.012;2023-08-01T02:28:23;8.9;;;4.7;;
13057;SDS011;6595;49.578;11.012;2023-08-01T02:30:23;8.4;;;4.6;;
13057;SDS011;6595;49.578;11.012;2023-08-01T02:32:24;7.4;;;3.9;;
13057;SDS011;6595;49.578;11.012;2023-08-01T02:34:24;7.4;;;3.9;;
13057;SDS011;6595;49.578;11.012;2023-08-01T02:36:23;8.4;;;4.7;;
13057;SDS011;6595;49.578;11.012;2023-08-01T02:38:24;9.4;;;4.4;;
13057;SDS011;6595;49.578;11.012;2023-08-01T02:40:23;9.4;;;4.4;;
13057;SDS011;6595;49.578;11.012;2023-08-01T02:42:23;7.5;;;4.2;;
13057;SDS011;6595;49.578;11.012;2023-08-01T02:44:24;7.5;;;4.2;;
13057;SDS011;6595;49.578;11.012;2023-08-01T02:46:23;9.0;;;4.6;;
13057;SDS011;6595;49.578;11.012;2023-08-01T02:48:23;7.0;;;4.0;;
13057;SDS011;6595;49.578;11.012;2023-08-01T02:50:24;6.2;;;4.0;;
13057;SDS011;6595;49.578;11.012;2023-08-01T02:52:23;6.2;;;4.0;;
13057;SDS011;6595;49.578;11.012;2023-08-01T02:54:23;9.2;;;4.7;;
13057;SDS011;6595;49.578;11.012;2023-08-01T02:56:24;9.8;;;4.9;;
13057;SDS011;6595;49.578;11.012;2023-08-01T02:58:23;8.0;;;4.5;;
13057;SDS011;6595;49.578;11.012;2023-08-01T03:00:23;9.4;;;4.3;;
13057;SDS011;6595;49.578;11.012;2023-08-01T03:02:24;9.0;;;4.6;;
13057;SDS011;6595;49.578;11.012;2023-08-01T03:04:24;9.0;;;4.6;;
13057;SDS011;6595;49.578;11.012;2023-08-01T03:06:23;7.5;;;4.2;;
13057;SDS011;6595;49.578;11.012;2023-08-01T03:08:23;10.4;;;4.6;;
13057;SDS011;6595;49.578;11.012;2023-08-01T03:10:24;9.0;;;4.6;;
13057;SDS011;6595;49.578;11.012;2023-08-01T03:12:23;9.0;;;4.6;;
13057;SDS011;6595;49.578;11.012;2023-08-01T03:14:23;8.1;;;4.6;;
13057;SDS011;6595;49.578;11.012;2023-08-01T03:16:24;8.8;;;4.4;;
13057;SDS011;6595;49.578;11.012;2023-08-01T03:18:23;10.4;;;5.0;;
13057;SDS011;6595;49.578;11.012;2023-08-01T03:20:23;8.8;;;4.8;;
13057;SDS011;6595;49.578;11.012;2023-08-01T03:22:24;7.9;;;4.2;;
13057;SDS011;6595;49.578;11.012;2023-08-01T03:24:23;7.9;;;4.2;;
13057;SDS011;6595;49.578;11.012;2023-08-01T03:26:23;9.1;;;4.5;;
13057;SDS011;6595;49.578;11.012;2023-08-01T03:28:24;9.1;;;4.5;;
13057;SDS011;6595;49.578;11.012;2023-08-01T03:30:23;7.1;;;4.2;;
13057;SDS011;6595;49.578;11.012;2023-08-01T03:32:24;7.1;;;4.2;;
13057;SDS011;6595;49.578;11.012;2023-08-01T03:34:23;9.3;;;4.6;;
13057;SDS011;6595;49.578;11.012;2023-08-01T03:36:23;7.4;;;4.3;;
13057;SDS011;6595;49.578;11.012;2023-08-01T03:38:23;7.7;;;4.3;;
13057;SDS011;6595;49.578;11.012;2023-08-01T03:40:23;7.7;;;4.3;;
13057;SDS011;6595;49.578;11.012;2023-08-01T03:42:23;9.8;;;4.0;;
13057;SDS011;6595;49.578;11.012;2023-08-01T03:44:24;10.8;;;5.1;;
13057;SDS011;6595;49.578;11.012;2023-08-01T03:46:23;8.0;;;3.8;;
13057;SDS011;6595;49.578;11.012;2023-08-01T03:48:23;7.0;;;4.3;;
13057;SDS011;6595;49.578;11.012;2023-08-01T03:50:24;7.6;;;4.2;;
13057;SDS011;6595;49.578;11.012;2023-08-01T03:52:24;7.6;;;4.2;;
13057;SDS011;6595;49.578;11.012;2023-08-01T03:54:23;7.8;;;3.9;;
13057;SDS011;6595;49.578;11.012;2023-08-01T03:56:24;9.6;;;4.4;;
13057;SDS011;6595;49.578;11.012;2023-08-01T03:58:23;6.4;;;4.0;;
13057;SDS011;6595;49.578;11.012;2023-08-01T04:00:23;10.0;;;4.6;;
13057;SDS011;6595;49.578;11.012;2023-08-01T04:02:24;10.0;;;4.6;;
13057;SDS011;6595;49.578;11.012;2023-08-01T04:04:23;8.5;;;4.4;;
13057;SDS011;6595;49.578;11.012;2023-08-01T04:06:23;8.5;;;4.4;;
13057;SDS011;6595;49.578;11.012;2023-08-01T04:08:24;7.7;;;4.6;;
13057;SDS011;6595;49.578;11.012;2023-08-01T04:10:23;7.7;;;4.6;;
13057;SDS011;6595;49.578;11.012;2023-08-01T04:12:23;8.1;;;4.7;;
13057;SDS011;6595;49.578;11.012;2023-08-01T04:14:24;7.8;;;4.2;;
13057;SDS011;6595;49.578;11.012;2023-08-01T04:16:23;9.0;;;4.4;;
13057;SDS011;6595;49.578;11.012;2023-08-01T04:18:23;9.3;;;4.3;;
13057;SDS011;6595;49.578;11.012;2023-08-01T04:20:23;9.3;;;4.3;;
13057;SDS011;6595;49.578;11.012;2023-08-01T04:22:23;8.0;;;4.4;;
13057;SDS011;6595;49.578;11.012;2023-08-01T04:24:24;9.8;;;4.4;;
13057;SDS011;6595;49.578;11.012;2023-08-01T04:26:23;8.4;;;4.1;;
13057;SDS011;6595;49.578;11.012;2023-08-01T04:28:24;7.4;;;4.2;;
13057;SDS011;6595;49.578;11.012;2023-08-01T04:30:23;7.4;;;4.2;;
13057;SDS011;6595;49.578;11.012;2023-08-01T04:32:23;6.8;;;4.4;;
13057;SDS011;6595;49.578;11.012;2023-08-01T04:34:24;7.2;;;4.2;;
13057;SDS011;6595;49.578;11.012;2023-08-01T04:36:23;8.8;;;4.3;;
13057;SDS011;6595;49.578;11.012;2023-08-01T04:38:23;8.8;;;4.3;;
13057;SDS011;6595;49.578;11.012;2023-08-01T04:40:24;8.6;;;4.2;;
13057;SDS011;6595;49.578;11.012;2023-08-01T04:42:23;7.4;;;4.1;;
13057;SDS011;6595;49.578;11.012;2023-08-01T04:44:23;7.4;;;4.1;;
13057;SDS011;6595;49.578;11.012;2023-08-01T04:46:23;9.1;;;4.4;;
13057;SDS011;6595;49.578;11.012;2023-08-01T04:48:23;7.0;;;4.1;;
13057;SDS011;6595;49.578;11.012;2023-08-01T04:50:23;7.0;;;4.1;;
13057;SDS011;6595;49.578;11.012;2023-08-01T04:52:24;8.0;;;4.2;;
13057;SDS011;6595;49.578;11.012;2023-08-01T04:54:23;7.5;;;4.3;;
13057;SDS011;6595;49.578;11.012;2023-08-01T04:56:24;8.0;;;4.1;;
13057;SDS011;6595;49.578;11.012;2023-08-01T04:58:23;8.1;;;4.6;;
13057;SDS011;6595;49.578;11.012;2023-08-01T05:00:23;8.1;;;4.6;;
13057;SDS011;6595;49.578;11.012;2023-08-01T05:02:23;8.4;;;4.5;;
13057;SDS011;6595;49.578;11.012;2023-08-01T05:04:24;6.5;;;3.9;;
13057;SDS011;6595;49.578;11.012;2023-08-01T05:06:23;8.3;;;4.3;;
13057;SDS011;6595;49.578;11.012;2023-08-01T05:08:23;8.3;;;4.3;;
13057;SDS011;6595;49.578;11.012;2023-08-01T05:10:24;8.9;;;4.4;;
13057;SDS011;6595;49.578;11.012;2023-08-01T05:12:23;7.9;;;4.5;;
13057;SDS011;6595;49.578;11.012;2023-08-01T05:14:23;8.8;;;4.5;;
13057;SDS011;6595;49.578;11.012;2023-08-01T05:16:24;9.0;;;4.5;;
13057;SDS011;6595;49.578;11.012;2023-08-01T05:18:23;9.0;;;4.5;;
13057;SDS011;6595;49.578;11.012;2023-08-01T05:20:23;11.2;;;4.4;;
13057;SDS011;6595;49.578;11.012;2023-08-01T05:22:24;12.8;;;4.5;;
13057;SDS011;6595;49.578;11.012;2023-08-01T05:24:23;19.4;;;5.4;;
13057;SDS011;6595;49.578;11.012;2023-08-01T05:26:23;19.4;;;5.4;;
13057;SDS011;6595;49.578;11.012;2023-08-01T05:28:24;17.5;;;5.3;;
13057;SDS011;6595;49.578;11.012;2023-08-01T05:30:23;13.2;;;4.9;;
13057;SDS011;6595;49.578;11.012;2023-08-01T05:32:23;11.6;;;4.6;;
13057;SDS011;6595;49.578;11.012;2023-08-01T05:34:24;14.7;;;5.1;;
13057;SDS011;6595;49.578;11.012;2023-08-01T05:36:23;14.3;;;5.0;;
13057;SDS011;6595;49.578;11.012;2023-08-01T05:38:23;14.3;;;5.0;;
13057;SDS011;6595;49.578;11.012;2023-08-01T05:40:24;14.3;;;5.0;;
13057;SDS011;6595;49.578;11.012;2023-08-01T05:42:23;10.4;;;5.3;;
13057;SDS011;6595;49.578;11.012;2023-08-01T05:44:23;10.4;;;5.3;;
13057;SDS011;6595;49.578;11.012;2023-08-01T05:46:23;12.6;;;4.7;;
13057;SDS011;6595;49.578;11.012;2023-08-01T05:48:23;13.5;;;5.5;;
13057;SDS011;6595;49.578;11.012;2023-08-01T05:50:23;11.3;;;4.9;;
13057;SDS011;6595;49.578;11.012;2023-08-01T05:52:24;9.1;;;4.8;;
13057;SDS011;6595;49.578;11.012;2023-08-01T05:54:23;9.1;;;4.8;;
13057;SDS011;6595;49.578;11.012;2023-08-01T05:56:23;10.6;;;4.7;;
13057;SDS011;6595;49.578;11.012;2023-08-01T05:58:23;13.0;;;4.9;;
13057;SDS011;6595;49.578;11.012;2023-08-01T06:00:24;41.4;;;8.1;;
13057;SDS011;6595;49.578;11.012;2023-08-01T06:02:23;16.8;;;5.7;;
13057;SDS011;6595;49.578;11.012;2023-08-01T06:04:23;25.5;;;5.9;;
13057;SDS011;6595;49.578;11.012;2023-08-01T06:06:24;25.5;;;5.9;;
13057;SDS011;6595;49.578;11.012;2023-08-01T06:08:23;19.0;;;5.1;;
13057;SDS011;6595;49.578;11.012;2023-08-01T06:10:23;20.3;;;5.7;;
13057;SDS011;6595;49.578;11.012;2023-08-01T06:12:24;20.3;;;5.7;;
13057;SDS011;6595;49.578;11.012;2023-08-01T06:14:23;12.3;;;5.3;;
13057;SDS011;6595;49.578;11.012;2023-08-01T06:16:23;12.3;;;5.3;;
13057;SDS011;6595;49.578;11.012;2023-08-01T06:18:24;15.2;;;5.4;;
13057;SDS011;6595;49.578;11.012;2023-08-01T06:20:23;15.2;;;5.4;;
13057;SDS011;6595;49.578;11.012;2023-08-01T06:22:23;13.2;;;5.2;;
13057;SDS011;6595;49.578;11.012;2023-08-01T06:24:24;21.9;;;5.6;;
13057;SDS011;6595;49.578;11.012;2023-08-01T06:26:23;21.9;;;5.6;;
13057;SDS011;6595;49.578;11.012;2023-08-01T06:28:23;24.3;;;6.5;;
13057;SDS011;6595;49.578;11.012;2023-08-01T06:30:23;46.4;;;9.1;;
13057;SDS011;6595;49.578;11.012;2023-08-01T06:32:23;12.2;;;5.9;;
13057;SDS011;6595;49.578;11.012;2023-08-01T06:34:23;13.5;;;5.5;;
13057;SDS011;6595;49.578;11.012;2023-08-01T06:36:24;13.5;;;5.5;;
13057;SDS011;6595;49.578;11.012;2023-08-01T06:38:23;13.5;;;5.8;;
13057;SDS011;6595;49.578;11.012;2023-08-01T06:40:23;15.3;;;5.8;;
13057;SDS011;6595;49.578;11.012;2023-08-01T06:42:24;15.7;;;5.6;;
13057;SDS011;6595;49.578;11.012;2023-08-01T06:44:23;15.7;;;5.6;;
13057;SDS011;6595;49.578;11.012;2023-08-01T06:46:24;13.9;;;5.7;;
13057;SDS011;6595;49.578;11.012;2023-08-01T06:48:23;24.9;;;6.6;;
13057;SDS011;6595;49.578;11.012;2023-08-01T06:50:23;14.4;;;6.2;;
13057;SDS011;6595;49.578;11.012;2023-08-01T06:52:24;16.5;;;5.7;;
13057;SDS011;6595;49.578;11.012;2023-08-01T06:54:23;16.5;;;5.7;;
13057;SDS011;6595;49.578;11.012;2023-08-01T06:56:23;12.9;;;5.5;;
13057;SDS011;6595;49.578;11.012;2023-08-01T06:58:24;16.5;;;5.3;;
13057;SDS011;6595;49.578;11.012;2023-08-01T07:00:23;16.5;;;5.3;;
13057;SDS011;6595;49.578;11.012;2023-08-01T07:02:23;30.5;;;9.0;;
13057;SDS011;6595;49.578;11.012;2023-08-01T07:04:24;30.5;;;9.0;;
13057;SDS011;6595;49.578;11.012;2023-08-01T07:06:23;27.1;;;7.2;;
13057;SDS011;6595;49.578;11.012;2023-08-01T07:08:23;14.4;;;6.1;;
13057;SDS011;6595;49.578;11.012;2023-08-01T07:10:24;11.2;;;5.5;;
13057;SDS011;6595;49.578;11.012;2023-08-01T07:12:23;11.2;;;5.5;;
13057;SDS011;6595;49.578;11.012;2023-08-01T07:14:23;10.0;;;5.4;;
13057;SDS011;6595;49.578;11.012;2023-08-01T07:16:23;9.1;;;4.9;;
13057;SDS011;6595;49.578;11.012;2023-08-01T07:18:23;10.1;;;5.6;;
13057;SDS011;6595;49.578;11.012;2023-08-01T07:20:24;10.1;;;5.6;;
13057;SDS011;6595;49.578;11.012;2023-08-01T07:22:23;19.2;;;6.5;;
13057;SDS011;6595;49.578;11.012;2023-08-01T07:24:23;19.2;;;6.5;;
13057;SDS011;6595;49.578;11.012;2023-08-01T07:26:24;9.9;;;5.0;;
13057;SDS011;6595;49.578;11.012;2023-08-01T07:28:23;10.2;;;5.1;;
13057;SDS011;6595;49.578;11.012;2023-08-01T07:30:24;10.2;;;5.3;;
13057;SDS011;6595;49.578;11.012;2023-08-01T07:32:23;9.4;;;4.8;;
13057;SDS011;6595;49.578;11.012;2023-08-01T07:34:23;9.4;;;4.8;;
13057;SDS011;6595;49.578;11.012;2023-08-01T07:36:24;10.4;;;5.2;;
13057;SDS011;6595;49.578;11.012;2023-08-01T07:38:24;9.9;;;4.8;;
13057;SDS011;6595;49.578;11.012;2023-08-01T07:40:23;10.1;;;5.2;;
13057;SDS011;6595;49.578;11.012;2023-08-01T07:42:24;9.1;;;5.2;;
13057;SDS011;6595;49.578;11.012;2023-08-01T07:44:23;9.1;;;5.2;;
13057;SDS011;6595;49.578;11.012;2023-08-01T07:46:24;8.2;;;4.7;;
13057;SDS011;6595;49.578;11.012;2023-08-01T07:48:23;8.2;;;4.7;;
13057;SDS011;6595;49.578;11.012;2023-08-01T07:50:23;13.6;;;5.3;;
13057;SDS011;6595;49.578;11.012;2023-08-01T07:52:24;13.6;;;5.3;;
13057;SDS011;6595;49.578;11.012;2023-08-01T07:54:23;11.8;;;5.2;;
13057;SDS011;6595;49.578;11.012;2023-08-01T07:56:23;10.3;;;5.1;;
13057;SDS011;6595;49.578;11.012;2023-08-01T07:58:24;9.5;;;5.2;;
13057;SDS011;6595;49.578;11.012;2023-08-01T08:00:23;9.9;;;4.8;;
13057;SDS011;6595;49.578;11.012;2023-08-01T08:02:23;9.9;;;4.8;;
13057;SDS011;6595;49.578;11.012;2023-08-01T08:04:23;8.8;;;4.7;;
13057;SDS011;6595;49.578;11.012;2023-08-01T08:06:24;12.0;;;5.0;;
13057;SDS011;6595;49.578;11.012;2023-08-01T08:08:24;10.8;;;5.4;;
13057;SDS011;6595;49.578;11.012;2023-08-01T08:10:23;10.7;;;5.1;;
13057;SDS011;6595;49.578;11.012;2023-08-01T08:12:24;10.7;;;5.1;;
13057;SDS011;6595;49.578;11.012;2023-08-01T08:14:23;9.6;;;5.2;;
13057;SDS011;6595;49.578;11.012;2023-08-01T08:16:23;12.9;;;5.6;;
13057;SDS011;6595;49.578;11.012;2023-08-01T08:18:23;12.9;;;5.6;;
13057;SDS011;6595;49.578;11.012;2023-08-01T08:20:23;9.8;;;5.1;;
13057;SDS011;6595;49.578;11.012;2023-08-01T08:22:23;9.8;;;5.1;;
13057;SDS011;6595;49.578;11.012;2023-08-01T08:24:24;12.4;;;5.9;;
13057;SDS011;6595;49.578;11.012;2023-08-01T08:26:23;15.0;;;6.0;;
13057;SDS011;6595;49.578;11.012;2023-08-01T08:28:27;10.7;;;5.8;;
13057;SDS011;6595;49.578;11.012;2023-08-01T08:30:24;10.7;;;5.8;;
13057;SDS011;6595;49.578;11.012;2023-08-01T08:32:23;13.3;;;5.7;;
13057;SDS011;6595;49.578;11.012;2023-08-01T08:34:23;9.5;;;5.5;;
13057;SDS011;6595;49.578;11.012;2023-08-01T08:36:23;12.8;;;5.8;;
13057;SDS011;6595;49.578;11.012;2023-08-01T08:38:23;12.8;;;5.8;;
13057;SDS011;6595;49.578;11.012;2023-08-01T08:40:23;11.4;;;5.9;;
13057;SDS011;6595;49.578;11.012;2023-08-01T08:42:24;7.6;;;4.4;;
13057;SDS011;6595;49.578;11.012;2023-08-01T08:44:23;15.7;;;5.0;;
13057;SDS011;6595;49.578;11.012;2023-08-01T08:46:23;9.2;;;4.7;;
13057;SDS011;6595;49.578;11.012;2023-08-01T08:48:23;90.4;;;14.4;;
13057;SDS011;6595;49.578;11.012;2023-08-01T08:50:24;90.4;;;14.4;;
13057;SDS011;6595;49.578;11.012;2023-08-01T08:52:24;90.4;;;14.4;;
13057;SDS011;6595;49.578;11.012;2023-08-01T08:54:23;10.0;;;4.6;;
13057;SDS011;6595;49.578;11.012;2023-08-01T08:56:23;10.0;;;4.6;;
13057;SDS011;6595;49.578;11.012;2023-08-01T08:58:23;7.4;;;4.3;;
13057;SDS011;6595;49.578;11.012;2023-08-01T09:00:24;7.4;;;4.3;;
13057;SDS011;6595;49.578;11.012;2023-08-01T09:02:23;10.5;;;4.9;;
13057;SDS011;6595;49.578;11.012;2023-08-01T09:04:23;9.1;;;4.9;;
13057;SDS011;6595;49.578;11.012;2023-08-01T09:06:24;9.2;;;4.5;;
13057;SDS011;6595;49.578;11.012;2023-08-01T09:08:23;9.1;;;4.2;;
13057;SDS011;6595;49.578;11.012;2023-08-01T09:10:23;9.1;;;4.2;;
13057;SDS011;6595;49.578;11.012;2023-08-01T09:12:23;9.8;;;4.3;;
13057;SDS011;6595;49.578;11.012;2023-08-01T09:14:24;8.4;;;4.4;;
13057;SDS011;6595;49.578;11.012;2023-08-01T09:16:23;10.4;;;4.2;;
13057;SDS011;6595;49.578;11.012;2023-08-01T09:18:23;10.4;;;4.2;;
13057;SDS011;6595;49.578;11.012;2023-08-01T09:20:24;8.8;;;4.4;;
13057;SDS011;6595;49.578;11.012;2023-08-01T09:22:23;6.8;;;3.8;;
13057;SDS011;6595;49.578;11.012;2023-08-01T09:24:23;6.4;;;3.7;;
13057;SDS011;6595;49.578;11.012;2023-08-01T09:26:24;9.3;;;4.2;;
13057;SDS011;6595;49.578;11.012;2023-08-01T09:28:23;9.3;;;4.2;;
13057;SDS011;6595;49.578;11.012;2023-08-01T09:30:24;7.0;;;3.9;;
13057;SDS011;6595;49.578;11.012;2023-08-01T09:32:24;8.1;;;4.1;;
13057;SDS011;6595;49.578;11.012;2023-08-01T09:34:24;8.7;;;4.2;;
13057;SDS011;6595;49.578;11.012;2023-08-01T09:36:23;8.2;;;4.4;;
13057;SDS011;6595;49.578;11.012;2023-08-01T09:38:23;8.2;;;4.4;;
13057;SDS011;6595;49.578;11.012;2023-08-01T09:40:23;9.8;;;4.8;;
13057;SDS011;6595;49.578;11.012;2023-08-01T09:42:24;12.9;;;4.5;;
13057;SDS011;6595;49.578;11.012;2023-08-01T09:44:23;12.9;;;4.5;;
13057;SDS011;6595;49.578;11.012;2023-08-01T09:46:23;12.9;;;4.5;;
13057;SDS011;6595;49.578;11.012;2023-08-01T09:48:24;11.9;;;4.8;;
13057;SDS011;6595;49.578;11.012;2023-08-01T09:50:24;8.7;;;4.5;;
13057;SDS011;6595;49.578;11.012;2023-08-01T09:52:26;8.1;;;4.2;;
13057;SDS011;6595;49.578;11.012;2023-08-01T09:54:24;7.3;;;4.1;;
13057;SDS011;6595;49.578;11.012;2023-08-01T09:56:24;7.3;;;4.1;;
13057;SDS011;6595;49.578;11.012;2023-08-01T09:58:23;11.0;;;4.8;;
13057;SDS011;6595;49.578;11.012;2023-08-01T10:00:25;8.8;;;4.6;;
13057;SDS011;6595;49.578;11.012;2023-08-01T10:02:24;8.3;;;4.9;;
13057;SDS011;6595;49.578;11.012;2023-08-01T10:04:25;8.3;;;4.9;;
13057;SDS011;6595;49.578;11.012;2023-08-01T10:06:24;7.8;;;4.6;;
13057;SDS011;6595;49.578;11.012;2023-08-01T10:08:23;7.7;;;4.7;;
13057;SDS011;6595;49.578;11.012;2023-08-01T10:10:23;9.2;;;4.8;;
13057;SDS011;6595;49.578;11.012;2023-08-01T10:12:24;9.1;;;4.6;;
13057;SDS011;6595;49.578;11.012;2023-08-01T10:14:23;6.9;;;4.5;;
13057;SDS011;6595;49.578;11.012;2023-08-01T10:16:23;8.7;;;4.6;;
13057;SDS011;6595;49.578;11.012;2023-08-01T10:18:24;8.7;;;4.6;;
13057;SDS011;6595;49.578;11.012;2023-08-01T10:20:23;9.4;;;4.5;;
13057;SDS011;6595;49.578;11.012;2023-08-01T10:22:23;7.3;;;3.9;;
13057;SDS011;6595;49.578;11.012;2023-08-01T10:24:24;7.8;;;4.4;;
13057;SDS011;6595;49.578;11.012;2023-08-01T10:26:23;7.8;;;4.4;;
13057;SDS011;6595;49.578;11.012;2023-08-01T10:28:30;5.9;;;3.8;;
13057;SDS011;6595;49.578;11.012;2023-08-01T10:30:25;7.0;;;4.1;;
13057;SDS011;6595;49.578;11.012;2023-08-01T10:32:27;6.5;;;3.9;;
13057;SDS011;6595;49.578;11.012;2023-08-01T10:34:24;6.9;;;3.8;;
13057;SDS011;6595;49.578;11.012;2023-08-01T10:36:25;6.9;;;3.8;;
13057;SDS011;6595;49.578;11.012;2023-08-01T10:38:23;6.5;;;3.9;;
13057;SDS011;6595;49.578;11.012;2023-08-01T10:40:32;7.0;;;3.6;;
13057;SDS011;6595;49.578;11.012;2023-08-01T10:42:24;6.4;;;3.5;;
13057;SDS011;6595;49.578;11.012;2023-08-01T10:44:23;6.4;;;3.5;;
13057;SDS011;6595;49.578;11.012;2023-08-01T10:46:24;6.4;;;3.5;;
13057;SDS011;6595;49.578;11.012;2023-08-01T10:48:23;5.6;;;3.4;;
13057;SDS011;6595;49.578;11.012;2023-08-01T10:50:23;6.8;;;3.6;;
13057;SDS011;6595;49.578;11.012;2023-08-01T10:52:25;5.1;;;3.3;;
13057;SDS011;6595;49.578;11.012;2023-08-01T10:54:24;5.0;;;3.2;;
13057;SDS011;6595;49.578;11.012;2023-08-01T10:56:23;5.0;;;3.2;;
13057;SDS011;6595;49.578;11.012;2023-08-01T10:58:26;6.1;;;3.2;;
13057;SDS011;6595;49.578;11.012;2023-08-01T11:00:23;5.3;;;3.3;;
13057;SDS011;6595;49.578;11.012;2023-08-01T11:02:24;12.6;;;4.0;;
13057;SDS011;6595;49.578;11.012;2023-08-01T11:04:23;12.6;;;4.0;;
13057;SDS011;6595;49.578;11.012;2023-08-01T11:06:23;5.8;;;3.1;;
13057;SDS011;6595;49.578;11.012;2023-08-01T11:08:33;5.0;;;2.9;;
13057;SDS011;6595;49.578;11.012;2023-08-01T11:10:24;5.0;;;2.9;;
13057;SDS011;6595;49.578;11.012;2023-08-01T11:12:23;5.0;;;2.9;;
13057;SDS011;6595;49.578;11.012;2023-08-01T11:14:23;5.0;;;2.9;;
13057;SDS011;6595;49.578;11.012;2023-08-01T11:16:23;5.7;;;2.7;;
13057;SDS011;6595;49.578;11.012;2023-08-01T11:18:23;4.4;;;2.7;;
13057;SDS011;6595;49.578;11.012;2023-08-01T11:20:24;5.8;;;2.9;;
13057;SDS011;6595;49.578;11.012;2023-08-01T11:22:23;4.8;;;2.7;;
13057;SDS011;6595;49.578;11.012;2023-08-01T11:24:24;4.8;;;2.7;;
13057;SDS011;6595;49.578;11.012;2023-08-01T11:26:24;3.9;;;2.4;;
13057;SDS011;6595;49.578;11.012;2023-08-01T11:28:23;4.4;;;2.5;;
13057;SDS011;6595;49.578;11.012;2023-08-01T11:30:29;4.9;;;2.4;;
13057;SDS011;6595;49.578;11.012;2023-08-01T11:32:32;4.9;;;2.4;;
13057;SDS011;6595;49.578;11.012;2023-08-01T11:34:23;5.1;;;2.4;;
13057;SDS011;6595;49.578;11.012;2023-08-01T11:36:25;10.8;;;3.1;;
13057;SDS011;6595;49.578;11.012;2023-08-01T11:38:23;2.8;;;2.2;;
13057;SDS011;6595;49.578;11.012;2023-08-01T11:40:23;25.0;;;4.8;;
13057;SDS011;6595;49.578;11.012;2023-08-01T11:42:24;25.0;;;4.8;;
13057;SDS011;6595;49.578;11.012;2023-08-01T11:44:23;8.6;;;2.5;;
13057;SDS011;6595;49.578;11.012;2023-08-01T11:46:29;8.8;;;2.1;;
13057;SDS011;6595;49.578;11.012;2023-08-01T11:48:24;4.5;;;1.8;;
13057;SDS011;6595;49.578;11.012;2023-08-01T11:50:25;4.5;;;1.8;;
13057;SDS011;6595;49.578;11.012;2023-08-01T11:52:24;2.2;;;1.6;;
13057;SDS011;6595;49.578;11.012;2023-08-01T11:54:24;2.6;;;1.8;;
13057;SDS011;6595;49.578;11.012;2023-08-01T11:56:23;4.0;;;1.9;;
13057;SDS011;6595;49.578;11.012;2023-08-01T11:58:31;2.4;;;1.7;;
13057;SDS011;6595;49.578;11.012;2023-08-01T12:00:24;12.4;;;3.0;;
13057;SDS011;6595;49.578;11.012;2023-08-01T12:02:24;12.4;;;3.0;;
13057;SDS011;6595;49.578;11.012;2023-08-01T12:04:23;4.1;;;1.9;;
13057;SDS011;6595;49.578;11.012;2023-08-01T12:06:24;3.2;;;1.9;;
13057;SDS011;6595;49.578;11.012;2023-08-01T12:08:23;3.2;;;1.9;;
13057;SDS011;6595;49.578;11.012;2023-08-01T12:10:23;3.2;;;1.7;;
13057;SDS011;6595;49.578;11.012;2023-08-01T12:12:25;3.2;;;1.7;;
13057;SDS011;6595;49.578;11.012;2023-08-01T12:14:23;5.2;;;1.8;;
13057;SDS011;6595;49.578;11.012;2023-08-01T12:16:23;2.4;;;1.8;;
13057;SDS011;6595;49.578;11.012;2023-08-01T12:18:24;7.2;;;2.1;;
13057;SDS011;6595;49.578;11.012;2023-08-01T12:20:23;4.4;;;1.9;;